sensor_id;sensor_type;location;lat;lon;timestamp;temperature;humidity
66373;SHT30;53168;51.146;17.120;2024-03-22T00:00:41;11.10;71.86
66373;SHT30;53168;51.146;17.120;2024-03-22T00:03:39;11.10;71.84
66373;SHT30;53168;51.146;17.120;2024-03-22T00:06:16;11.10;71.79
66373;SHT30;53168;51.146;17.120;2024-03-22T00:08:51;11.11;71.90
66373;SHT30;53168;51.146;17.120;2024-03-22T00:11:26;11.09;71.93
66373;SHT30;53168;51.146;17.120;2024-03-22T00:14:10;11.09;71.95
66373;SHT30;53168;51.146;17.120;2024-03-22T00:17:07;11.10;71.92
66373;SHT30;53168;51.146;17.120;2024-03-22T00:19:49;11.11;71.94
66373;SHT30;53168;51.146;17.120;2024-03-22T00:22:29;11.11;71.92
66373;SHT30;53168;51.146;17.120;2024-03-22T00:28:25;11.09;71.74
66373;SHT30;53168;51.146;17.120;2024-03-22T00:31:07;11.06;71.64
66373;SHT30;53168;51.146;17.120;2024-03-22T00:33:45;11.05;71.72
66373;SHT30;53168;51.146;17.120;2024-03-22T00:36:24;11.02;71.69
66373;SHT30;53168;51.146;17.120;2024-03-22T00:39:01;11.01;71.58
66373;SHT30;53168;51.146;17.120;2024-03-22T00:41:43;10.99;71.81
66373;SHT30;53168;51.146;17.120;2024-03-22T00:44:28;10.98;71.77
66373;SHT30;53168;51.146;17.120;2024-03-22T00:47:20;10.95;71.64
66373;SHT30;53168;51.146;17.120;2024-03-22T00:50:09;10.91;71.18
66373;SHT30;53168;51.146;17.120;2024-03-22T00:52:52;10.87;70.67
66373;SHT30;53168;51.146;17.120;2024-03-22T00:55:36;10.83;70.39
66373;SHT30;53168;51.146;17.120;2024-03-22T00:58:17;10.77;70.26
66373;SHT30;53168;51.146;17.120;2024-03-22T01:00:56;10.74;70.10
66373;SHT30;53168;51.146;17.120;2024-03-22T01:03:40;10.71;70.02
66373;SHT30;53168;51.146;17.120;2024-03-22T01:06:57;10.67;69.92
66373;SHT30;53168;51.146;17.120;2024-03-22T01:09:37;10.64;69.74
66373;SHT30;53168;51.146;17.120;2024-03-22T01:12:22;10.60;69.61
66373;SHT30;53168;51.146;17.120;2024-03-22T01:14:59;10.57;69.65
66373;SHT30;53168;51.146;17.120;2024-03-22T01:17:38;10.55;69.62
66373;SHT30;53168;51.146;17.120;2024-03-22T01:20:14;10.52;69.69
66373;SHT30;53168;51.146;17.120;2024-03-22T01:22:49;10.51;69.60
66373;SHT30;53168;51.146;17.120;2024-03-22T01:25:27;10.49;69.60
66373;SHT30;53168;51.146;17.120;2024-03-22T01:28:09;10.45;69.52
66373;SHT30;53168;51.146;17.120;2024-03-22T01:30:57;10.42;69.53
66373;SHT30;53168;51.146;17.120;2024-03-22T01:33:42;10.40;69.50
66373;SHT30;53168;51.146;17.120;2024-03-22T01:36:34;10.39;69.42
66373;SHT30;53168;51.146;17.120;2024-03-22T01:39:16;10.36;69.40
66373;SHT30;53168;51.146;17.120;2024-03-22T01:42:05;10.31;69.44
66373;SHT30;53168;51.146;17.120;2024-03-22T01:44:44;10.29;69.50
66373;SHT30;53168;51.146;17.120;2024-03-22T01:47:23;10.25;69.49
66373;SHT30;53168;51.146;17.120;2024-03-22T01:50:03;10.21;69.50
66373;SHT30;53168;51.146;17.120;2024-03-22T01:52:46;10.17;69.58
66373;SHT30;53168;51.146;17.120;2024-03-22T01:55:29;10.14;69.64
66373;SHT30;53168;51.146;17.120;2024-03-22T01:58:08;10.10;69.74
66373;SHT30;53168;51.146;17.120;2024-03-22T02:00:46;10.05;69.79
66373;SHT30;53168;51.146;17.120;2024-03-22T02:03:26;10.03;69.89
66373;SHT30;53168;51.146;17.120;2024-03-22T02:06:05;10.00;70.03
66373;SHT30;53168;51.146;17.120;2024-03-22T02:08:44;9.95;70.16
66373;SHT30;53168;51.146;17.120;2024-03-22T02:11:25;9.91;70.27
66373;SHT30;53168;51.146;17.120;2024-03-22T02:14:02;9.87;70.38
66373;SHT30;53168;51.146;17.120;2024-03-22T02:17:33;9.82;70.59
66373;SHT30;53168;51.146;17.120;2024-03-22T02:24:16;9.74;71.12
66373;SHT30;53168;51.146;17.120;2024-03-22T02:27:01;9.72;71.29
66373;SHT30;53168;51.146;17.120;2024-03-22T02:29:41;9.69;71.59
66373;SHT30;53168;51.146;17.120;2024-03-22T02:32:19;9.67;71.63
66373;SHT30;53168;51.146;17.120;2024-03-22T02:35:00;9.64;71.63
66373;SHT30;53168;51.146;17.120;2024-03-22T02:55:14;9.60;72.30
66373;SHT30;53168;51.146;17.120;2024-03-22T02:58:01;9.59;72.40
66373;SHT30;53168;51.146;17.120;2024-03-22T03:00:41;9.59;72.43
66373;SHT30;53168;51.146;17.120;2024-03-22T03:03:36;9.58;72.74
66373;SHT30;53168;51.146;17.120;2024-03-22T03:06:13;9.55;72.86
66373;SHT30;53168;51.146;17.120;2024-03-22T03:09:16;9.52;73.13
66373;SHT30;53168;51.146;17.120;2024-03-22T03:12:03;9.48;73.20
66373;SHT30;53168;51.146;17.120;2024-03-22T03:14:57;9.44;73.58
66373;SHT30;53168;51.146;17.120;2024-03-22T03:17:36;9.40;73.88
66373;SHT30;53168;51.146;17.120;2024-03-22T03:20:22;9.36;74.19
66373;SHT30;53168;51.146;17.120;2024-03-22T03:23:05;9.31;74.64
66373;SHT30;53168;51.146;17.120;2024-03-22T03:25:49;9.25;74.76
66373;SHT30;53168;51.146;17.120;2024-03-22T03:28:29;9.20;74.75
66373;SHT30;53168;51.146;17.120;2024-03-22T03:31:07;9.17;75.01
66373;SHT30;53168;51.146;17.120;2024-03-22T03:33:47;9.16;75.23
66373;SHT30;53168;51.146;17.120;2024-03-22T03:36:29;9.14;75.40
66373;SHT30;53168;51.146;17.120;2024-03-22T03:39:12;9.12;75.47
66373;SHT30;53168;51.146;17.120;2024-03-22T03:41:51;9.11;75.66
66373;SHT30;53168;51.146;17.120;2024-03-22T03:44:35;9.10;75.87
66373;SHT30;53168;51.146;17.120;2024-03-22T03:47:14;9.08;75.98
66373;SHT30;53168;51.146;17.120;2024-03-22T03:49:50;9.07;76.26
66373;SHT30;53168;51.146;17.120;2024-03-22T03:52:32;9.06;76.19
66373;SHT30;53168;51.146;17.120;2024-03-22T03:55:08;9.05;76.09
66373;SHT30;53168;51.146;17.120;2024-03-22T03:57:45;9.06;76.05
66373;SHT30;53168;51.146;17.120;2024-03-22T04:00:28;9.09;76.12
66373;SHT30;53168;51.146;17.120;2024-03-22T04:03:26;9.08;76.22
66373;SHT30;53168;51.146;17.120;2024-03-22T04:06:29;9.09;76.23
66373;SHT30;53168;51.146;17.120;2024-03-22T04:09:18;9.10;76.26
66373;SHT30;53168;51.146;17.120;2024-03-22T04:11:59;9.12;76.30
66373;SHT30;53168;51.146;17.120;2024-03-22T04:14:38;9.13;76.38
66373;SHT30;53168;51.146;17.120;2024-03-22T04:17:17;9.14;76.44
66373;SHT30;53168;51.146;17.120;2024-03-22T04:20:12;9.17;76.47
66373;SHT30;53168;51.146;17.120;2024-03-22T04:22:47;9.18;76.54
66373;SHT30;53168;51.146;17.120;2024-03-22T04:25:29;9.19;76.60
66373;SHT30;53168;51.146;17.120;2024-03-22T04:28:11;9.19;76.32
66373;SHT30;53168;51.146;17.120;2024-03-22T04:31:05;9.21;76.23
66373;SHT30;53168;51.146;17.120;2024-03-22T04:33:43;9.23;76.33
66373;SHT30;53168;51.146;17.120;2024-03-22T04:36:21;9.22;76.37
66373;SHT30;53168;51.146;17.120;2024-03-22T04:39:01;9.23;76.36
66373;SHT30;53168;51.146;17.120;2024-03-22T04:41:36;9.22;76.48
66373;SHT30;53168;51.146;17.120;2024-03-22T04:44:14;9.23;76.50
66373;SHT30;53168;51.146;17.120;2024-03-22T04:46:53;9.24;76.50
66373;SHT30;53168;51.146;17.120;2024-03-22T04:49:41;9.25;76.47
66373;SHT30;53168;51.146;17.120;2024-03-22T04:52:17;9.25;76.34
66373;SHT30;53168;51.146;17.120;2024-03-22T04:58:01;9.28;76.29
66373;SHT30;53168;51.146;17.120;2024-03-22T05:00:46;9.28;76.36
66373;SHT30;53168;51.146;17.120;2024-03-22T05:03:44;9.27;76.30
66373;SHT30;53168;51.146;17.120;2024-03-22T05:06:25;9.28;76.40
66373;SHT30;53168;51.146;17.120;2024-03-22T05:09:05;9.27;76.45
66373;SHT30;53168;51.146;17.120;2024-03-22T05:11:56;9.25;76.45
66373;SHT30;53168;51.146;17.120;2024-03-22T05:14:40;9.24;76.41
66373;SHT30;53168;51.146;17.120;2024-03-22T05:17:21;9.25;76.34
66373;SHT30;53168;51.146;17.120;2024-03-22T05:20:09;9.26;76.24
66373;SHT30;53168;51.146;17.120;2024-03-22T05:22:56;9.27;76.15
66373;SHT30;53168;51.146;17.120;2024-03-22T05:25:40;9.29;76.10
66373;SHT30;53168;51.146;17.120;2024-03-22T05:31:32;9.31;76.03
66373;SHT30;53168;51.146;17.120;2024-03-22T05:34:27;9.30;75.88
66373;SHT30;53168;51.146;17.120;2024-03-22T05:37:16;9.29;75.77
66373;SHT30;53168;51.146;17.120;2024-03-22T05:39:54;9.28;75.79
66373;SHT30;53168;51.146;17.120;2024-03-22T05:42:39;9.24;75.70
66373;SHT30;53168;51.146;17.120;2024-03-22T05:45:23;9.19;75.80
66373;SHT30;53168;51.146;17.120;2024-03-22T05:48:02;9.15;75.90
66373;SHT30;53168;51.146;17.120;2024-03-22T05:50:52;9.12;75.93
66373;SHT30;53168;51.146;17.120;2024-03-22T05:53:37;9.09;76.02
66373;SHT30;53168;51.146;17.120;2024-03-22T05:56:18;9.09;76.00
66373;SHT30;53168;51.146;17.120;2024-03-22T05:59:19;9.13;76.02
66373;SHT30;53168;51.146;17.120;2024-03-22T06:01:59;9.15;75.95
66373;SHT30;53168;51.146;17.120;2024-03-22T06:04:44;9.18;75.87
66373;SHT30;53168;51.146;17.120;2024-03-22T06:07:32;9.23;75.74
66373;SHT30;53168;51.146;17.120;2024-03-22T06:10:15;9.26;75.64
66373;SHT30;53168;51.146;17.120;2024-03-22T06:12:49;9.28;75.53
66373;SHT30;53168;51.146;17.120;2024-03-22T06:15:25;9.27;75.38
66373;SHT30;53168;51.146;17.120;2024-03-22T06:18:00;9.30;75.16
66373;SHT30;53168;51.146;17.120;2024-03-22T06:20:36;9.32;75.03
66373;SHT30;53168;51.146;17.120;2024-03-22T06:23:11;9.34;74.84
66373;SHT30;53168;51.146;17.120;2024-03-22T06:25:53;9.36;74.71
66373;SHT30;53168;51.146;17.120;2024-03-22T06:28:30;9.40;74.57
66373;SHT30;53168;51.146;17.120;2024-03-22T06:31:31;9.43;74.50
66373;SHT30;53168;51.146;17.120;2024-03-22T06:34:05;9.49;74.41
66373;SHT30;53168;51.146;17.120;2024-03-22T06:36:40;9.53;74.21
66373;SHT30;53168;51.146;17.120;2024-03-22T06:39:15;9.55;74.01
66373;SHT30;53168;51.146;17.120;2024-03-22T06:41:49;9.57;73.97
66373;SHT30;53168;51.146;17.120;2024-03-22T06:44:23;9.64;73.87
66373;SHT30;53168;51.146;17.120;2024-03-22T06:46:57;9.73;73.71
66373;SHT30;53168;51.146;17.120;2024-03-22T06:49:36;9.80;73.49
66373;SHT30;53168;51.146;17.120;2024-03-22T06:52:13;9.85;73.30
66373;SHT30;53168;51.146;17.120;2024-03-22T06:54:47;9.93;73.16
66373;SHT30;53168;51.146;17.120;2024-03-22T06:57:24;9.96;72.85
66373;SHT30;53168;51.146;17.120;2024-03-22T06:59:57;9.97;72.52
66373;SHT30;53168;51.146;17.120;2024-03-22T07:02:42;9.98;72.40
66373;SHT30;53168;51.146;17.120;2024-03-22T07:05:17;9.96;72.07
66373;SHT30;53168;51.146;17.120;2024-03-22T07:07:57;9.97;72.04
66373;SHT30;53168;51.146;17.120;2024-03-22T07:10:33;10.04;71.81
66373;SHT30;53168;51.146;17.120;2024-03-22T07:13:13;10.11;71.50
66373;SHT30;53168;51.146;17.120;2024-03-22T07:15:48;10.12;71.24
66373;SHT30;53168;51.146;17.120;2024-03-22T07:18:23;10.14;71.27
66373;SHT30;53168;51.146;17.120;2024-03-22T07:20:58;10.15;70.99
66373;SHT30;53168;51.146;17.120;2024-03-22T07:23:36;10.16;70.91
66373;SHT30;53168;51.146;17.120;2024-03-22T07:26:11;10.22;71.13
66373;SHT30;53168;51.146;17.120;2024-03-22T07:28:56;10.30;71.23
66373;SHT30;53168;51.146;17.120;2024-03-22T07:31:31;10.36;71.07
66373;SHT30;53168;51.146;17.120;2024-03-22T07:34:07;10.42;71.05
66373;SHT30;53168;51.146;17.120;2024-03-22T07:36:42;10.51;70.76
66373;SHT30;53168;51.146;17.120;2024-03-22T07:39:16;10.54;70.65
66373;SHT30;53168;51.146;17.120;2024-03-22T07:41:51;10.56;70.66
66373;SHT30;53168;51.146;17.120;2024-03-22T07:44:25;10.59;70.63
66373;SHT30;53168;51.146;17.120;2024-03-22T07:47:00;10.63;70.50
66373;SHT30;53168;51.146;17.120;2024-03-22T07:49:35;10.64;70.33
66373;SHT30;53168;51.146;17.120;2024-03-22T07:52:10;10.66;70.17
66373;SHT30;53168;51.146;17.120;2024-03-22T07:54:45;10.69;70.00
66373;SHT30;53168;51.146;17.120;2024-03-22T07:57:20;10.70;69.48
66373;SHT30;53168;51.146;17.120;2024-03-22T07:59:56;10.64;69.19
66373;SHT30;53168;51.146;17.120;2024-03-22T08:10:54;10.81;69.62
66373;SHT30;53168;51.146;17.120;2024-03-22T08:13:27;10.98;69.26
66373;SHT30;53168;51.146;17.120;2024-03-22T08:16:00;11.09;68.91
66373;SHT30;53168;51.146;17.120;2024-03-22T08:18:34;11.23;68.95
66373;SHT30;53168;51.146;17.120;2024-03-22T08:21:07;11.38;68.84
66373;SHT30;53168;51.146;17.120;2024-03-22T08:23:39;11.51;68.49
66373;SHT30;53168;51.146;17.120;2024-03-22T08:26:16;11.61;68.25
66373;SHT30;53168;51.146;17.120;2024-03-22T08:28:50;11.72;67.99
66373;SHT30;53168;51.146;17.120;2024-03-22T08:31:24;11.84;67.98
66373;SHT30;53168;51.146;17.120;2024-03-22T08:33:57;11.86;67.35
66373;SHT30;53168;51.146;17.120;2024-03-22T08:36:28;11.90;67.43
66373;SHT30;53168;51.146;17.120;2024-03-22T08:39:12;11.96;67.30
66373;SHT30;53168;51.146;17.120;2024-03-22T08:41:45;11.98;67.16
66373;SHT30;53168;51.146;17.120;2024-03-22T08:44:16;12.07;67.47
66373;SHT30;53168;51.146;17.120;2024-03-22T08:46:47;12.23;67.18
66373;SHT30;53168;51.146;17.120;2024-03-22T08:49:21;12.33;66.78
66373;SHT30;53168;51.146;17.120;2024-03-22T08:51:53;12.44;66.86
66373;SHT30;53168;51.146;17.120;2024-03-22T08:54:24;12.51;66.42
66373;SHT30;53168;51.146;17.120;2024-03-22T08:56:55;12.44;66.07
66373;SHT30;53168;51.146;17.120;2024-03-22T08:59:28;12.38;66.16
66373;SHT30;53168;51.146;17.120;2024-03-22T09:02:01;12.38;65.87
66373;SHT30;53168;51.146;17.120;2024-03-22T09:04:32;12.66;65.97
66373;SHT30;53168;51.146;17.120;2024-03-22T09:07:04;13.07;65.40
66373;SHT30;53168;51.146;17.120;2024-03-22T09:09:36;13.45;65.12
66373;SHT30;53168;51.146;17.120;2024-03-22T09:12:09;13.68;64.77
66373;SHT30;53168;51.146;17.120;2024-03-22T09:14:40;13.70;64.54
66373;SHT30;53168;51.146;17.120;2024-03-22T09:17:11;13.62;64.21
66373;SHT30;53168;51.146;17.120;2024-03-22T09:19:45;13.46;64.31
66373;SHT30;53168;51.146;17.120;2024-03-22T09:22:16;13.27;63.91
66373;SHT30;53168;51.146;17.120;2024-03-22T09:24:48;13.19;64.20
66373;SHT30;53168;51.146;17.120;2024-03-22T09:27:19;13.12;64.10
66373;SHT30;53168;51.146;17.120;2024-03-22T09:29:53;13.09;63.97
66373;SHT30;53168;51.146;17.120;2024-03-22T09:32:24;13.10;63.86
66373;SHT30;53168;51.146;17.120;2024-03-22T09:34:55;13.06;64.01
66373;SHT30;53168;51.146;17.120;2024-03-22T09:37:26;13.10;64.14
66373;SHT30;53168;51.146;17.120;2024-03-22T09:39:57;13.15;64.02
66373;SHT30;53168;51.146;17.120;2024-03-22T09:42:33;13.20;63.87
66373;SHT30;53168;51.146;17.120;2024-03-22T09:45:09;13.20;63.83
66373;SHT30;53168;51.146;17.120;2024-03-22T09:47:43;13.33;64.17
66373;SHT30;53168;51.146;17.120;2024-03-22T09:50:17;13.46;63.64
66373;SHT30;53168;51.146;17.120;2024-03-22T09:52:51;13.48;63.35
66373;SHT30;53168;51.146;17.120;2024-03-22T09:55:24;13.47;63.55
66373;SHT30;53168;51.146;17.120;2024-03-22T09:57:56;13.49;63.49
66373;SHT30;53168;51.146;17.120;2024-03-22T10:00:28;13.46;62.95
66373;SHT30;53168;51.146;17.120;2024-03-22T10:03:00;13.31;62.54
66373;SHT30;53168;51.146;17.120;2024-03-22T10:05:33;13.21;62.68
66373;SHT30;53168;51.146;17.120;2024-03-22T10:08:06;13.16;62.63
66373;SHT30;53168;51.146;17.120;2024-03-22T10:10:37;13.09;62.69
66373;SHT30;53168;51.146;17.120;2024-03-22T10:13:14;13.10;62.50
66373;SHT30;53168;51.146;17.120;2024-03-22T10:15:47;13.13;62.24
66373;SHT30;53168;51.146;17.120;2024-03-22T10:18:20;13.22;62.63
66373;SHT30;53168;51.146;17.120;2024-03-22T10:21:03;13.36;62.43
66373;SHT30;53168;51.146;17.120;2024-03-22T10:23:37;13.44;62.26
66373;SHT30;53168;51.146;17.120;2024-03-22T10:26:11;13.49;62.40
66373;SHT30;53168;51.146;17.120;2024-03-22T10:28:46;13.62;62.64
66373;SHT30;53168;51.146;17.120;2024-03-22T10:31:22;13.77;62.12
66373;SHT30;53168;51.146;17.120;2024-03-22T10:33:58;13.92;61.66
66373;SHT30;53168;51.146;17.120;2024-03-22T10:36:33;14.06;61.27
66373;SHT30;53168;51.146;17.120;2024-03-22T10:39:06;14.23;61.26
66373;SHT30;53168;51.146;17.120;2024-03-22T10:41:41;14.36;60.91
66373;SHT30;53168;51.146;17.120;2024-03-22T10:44:17;14.44;60.69
66373;SHT30;53168;51.146;17.120;2024-03-22T10:46:56;14.56;60.51
66373;SHT30;53168;51.146;17.120;2024-03-22T10:49:32;14.66;59.99
66373;SHT30;53168;51.146;17.120;2024-03-22T10:52:15;14.73;59.89
66373;SHT30;53168;51.146;17.120;2024-03-22T10:55:07;14.76;59.91
66373;SHT30;53168;51.146;17.120;2024-03-22T11:00:36;14.72;58.83
66373;SHT30;53168;51.146;17.120;2024-03-22T11:03:15;14.81;58.81
66373;SHT30;53168;51.146;17.120;2024-03-22T11:05:55;14.94;57.40
66373;SHT30;53168;51.146;17.120;2024-03-22T11:08:30;15.00;57.64
66373;SHT30;53168;51.146;17.120;2024-03-22T11:11:11;15.22;57.55
66373;SHT30;53168;51.146;17.120;2024-03-22T11:13:43;15.33;56.79
66373;SHT30;53168;51.146;17.120;2024-03-22T11:16:18;15.36;57.09
66373;SHT30;53168;51.146;17.120;2024-03-22T11:18:53;15.45;57.01
66373;SHT30;53168;51.146;17.120;2024-03-22T11:21:28;15.52;56.63
66373;SHT30;53168;51.146;17.120;2024-03-22T11:24:04;15.69;56.70
66373;SHT30;53168;51.146;17.120;2024-03-22T11:26:43;15.90;55.78
66373;SHT30;53168;51.146;17.120;2024-03-22T11:29:16;15.94;55.55
66373;SHT30;53168;51.146;17.120;2024-03-22T11:31:55;16.13;56.08
66373;SHT30;53168;51.146;17.120;2024-03-22T11:34:48;16.28;56.05
66373;SHT30;53168;51.146;17.120;2024-03-22T11:37:20;16.34;55.44
66373;SHT30;53168;51.146;17.120;2024-03-22T11:39:53;16.21;53.99
66373;SHT30;53168;51.146;17.120;2024-03-22T11:42:27;15.93;54.30
66373;SHT30;53168;51.146;17.120;2024-03-22T11:44:59;15.76;55.24
66373;SHT30;53168;51.146;17.120;2024-03-22T11:47:30;15.70;55.07
66373;SHT30;53168;51.146;17.120;2024-03-22T11:50:03;15.68;54.80
66373;SHT30;53168;51.146;17.120;2024-03-22T11:52:36;15.64;53.97
66373;SHT30;53168;51.146;17.120;2024-03-22T11:55:07;15.55;53.64
66373;SHT30;53168;51.146;17.120;2024-03-22T11:57:48;15.48;53.69
66373;SHT30;53168;51.146;17.120;2024-03-22T12:00:20;15.37;53.22
66373;SHT30;53168;51.146;17.120;2024-03-22T12:03:23;15.30;53.96
66373;SHT30;53168;51.146;17.120;2024-03-22T12:05:57;15.31;53.65
66373;SHT30;53168;51.146;17.120;2024-03-22T12:08:28;15.30;53.80
66373;SHT30;53168;51.146;17.120;2024-03-22T12:11:00;15.35;54.07
66373;SHT30;53168;51.146;17.120;2024-03-22T12:13:33;15.45;53.94
66373;SHT30;53168;51.146;17.120;2024-03-22T12:16:05;15.49;53.47
66373;SHT30;53168;51.146;17.120;2024-03-22T12:18:36;15.54;53.00
66373;SHT30;53168;51.146;17.120;2024-03-22T12:21:08;15.60;53.54
66373;SHT30;53168;51.146;17.120;2024-03-22T12:23:40;15.70;52.95
66373;SHT30;53168;51.146;17.120;2024-03-22T12:26:15;15.78;52.59
66373;SHT30;53168;51.146;17.120;2024-03-22T12:28:46;15.79;52.43
66373;SHT30;53168;51.146;17.120;2024-03-22T12:31:18;15.71;51.66
66373;SHT30;53168;51.146;17.120;2024-03-22T12:33:49;15.62;52.12
66373;SHT30;53168;51.146;17.120;2024-03-22T12:36:21;15.60;51.83
66373;SHT30;53168;51.146;17.120;2024-03-22T12:38:51;15.53;51.10
66373;SHT30;53168;51.146;17.120;2024-03-22T12:41:22;15.44;51.66
66373;SHT30;53168;51.146;17.120;2024-03-22T12:43:53;15.41;52.32
66373;SHT30;53168;51.146;17.120;2024-03-22T12:46:28;15.36;53.02
66373;SHT30;53168;51.146;17.120;2024-03-22T12:48:58;15.30;53.28
66373;SHT30;53168;51.146;17.120;2024-03-22T12:51:32;15.20;53.36
66373;SHT30;53168;51.146;17.120;2024-03-22T12:54:06;15.12;53.55
66373;SHT30;53168;51.146;17.120;2024-03-22T12:56:37;15.09;53.71
66373;SHT30;53168;51.146;17.120;2024-03-22T12:59:08;15.06;53.78
66373;SHT30;53168;51.146;17.120;2024-03-22T13:01:39;15.08;53.95
66373;SHT30;53168;51.146;17.120;2024-03-22T13:04:11;15.12;53.84
66373;SHT30;53168;51.146;17.120;2024-03-22T13:06:45;15.14;53.82
66373;SHT30;53168;51.146;17.120;2024-03-22T13:09:16;15.15;53.73
66373;SHT30;53168;51.146;17.120;2024-03-22T13:11:50;15.19;53.61
66373;SHT30;53168;51.146;17.120;2024-03-22T13:14:21;15.26;53.74
66373;SHT30;53168;51.146;17.120;2024-03-22T13:16:52;15.28;53.06
66373;SHT30;53168;51.146;17.120;2024-03-22T13:19:23;15.24;52.71
66373;SHT30;53168;51.146;17.120;2024-03-22T13:21:54;15.21;53.03
66373;SHT30;53168;51.146;17.120;2024-03-22T13:24:26;15.27;53.34
66373;SHT30;53168;51.146;17.120;2024-03-22T13:30:14;15.97;52.92
66373;SHT30;53168;51.146;17.120;2024-03-22T13:32:50;16.52;52.11
66373;SHT30;53168;51.146;17.120;2024-03-22T13:35:24;16.95;51.44
66373;SHT30;53168;51.146;17.120;2024-03-22T13:37:59;17.25;51.42
66373;SHT30;53168;51.146;17.120;2024-03-22T13:40:34;17.45;50.40
66373;SHT30;53168;51.146;17.120;2024-03-22T13:54:13;17.16;50.33
66373;SHT30;53168;51.146;17.120;2024-03-22T13:56:45;17.03;50.52
66373;SHT30;53168;51.146;17.120;2024-03-22T13:59:18;16.88;50.42
66373;SHT30;53168;51.146;17.120;2024-03-22T14:01:49;16.76;50.08
66373;SHT30;53168;51.146;17.120;2024-03-22T14:04:20;16.63;49.73
66373;SHT30;53168;51.146;17.120;2024-03-22T14:06:51;16.47;49.62
66373;SHT30;53168;51.146;17.120;2024-03-22T14:09:26;16.40;49.90
66373;SHT30;53168;51.146;17.120;2024-03-22T14:11:56;16.31;49.90
66373;SHT30;53168;51.146;17.120;2024-03-22T14:14:28;16.22;49.66
66373;SHT30;53168;51.146;17.120;2024-03-22T14:17:00;16.17;49.93
66373;SHT30;53168;51.146;17.120;2024-03-22T14:19:31;16.17;49.53
66373;SHT30;53168;51.146;17.120;2024-03-22T14:22:03;16.15;49.56
66373;SHT30;53168;51.146;17.120;2024-03-22T14:24:33;16.16;49.94
66373;SHT30;53168;51.146;17.120;2024-03-22T14:27:06;16.14;49.47
66373;SHT30;53168;51.146;17.120;2024-03-22T14:29:39;16.10;49.29
66373;SHT30;53168;51.146;17.120;2024-03-22T14:32:12;16.05;49.33
66373;SHT30;53168;51.146;17.120;2024-03-22T14:34:47;16.03;49.09
66373;SHT30;53168;51.146;17.120;2024-03-22T14:37:18;15.99;48.52
66373;SHT30;53168;51.146;17.120;2024-03-22T14:39:50;15.94;48.39
66373;SHT30;53168;51.146;17.120;2024-03-22T14:42:23;15.94;48.81
66373;SHT30;53168;51.146;17.120;2024-03-22T14:44:56;15.96;48.53
66373;SHT30;53168;51.146;17.120;2024-03-22T14:47:28;16.08;48.50
66373;SHT30;53168;51.146;17.120;2024-03-22T14:49:59;16.30;48.60
66373;SHT30;53168;51.146;17.120;2024-03-22T14:52:30;16.50;48.32
66373;SHT30;53168;51.146;17.120;2024-03-22T14:55:01;16.51;47.74
66373;SHT30;53168;51.146;17.120;2024-03-22T14:57:33;16.42;47.83
66373;SHT30;53168;51.146;17.120;2024-03-22T15:00:07;16.27;48.06
66373;SHT30;53168;51.146;17.120;2024-03-22T15:02:45;16.09;48.34
66373;SHT30;53168;51.146;17.120;2024-03-22T15:05:19;15.97;48.79
66373;SHT30;53168;51.146;17.120;2024-03-22T15:07:51;15.88;49.39
66373;SHT30;53168;51.146;17.120;2024-03-22T15:10:27;15.79;49.34
66373;SHT30;53168;51.146;17.120;2024-03-22T15:13:02;15.67;49.19
66373;SHT30;53168;51.146;17.120;2024-03-22T15:15:35;15.57;49.57
66373;SHT30;53168;51.146;17.120;2024-03-22T15:18:09;15.51;50.03
66373;SHT30;53168;51.146;17.120;2024-03-22T15:20:43;15.43;50.41
66373;SHT30;53168;51.146;17.120;2024-03-22T15:23:14;15.31;50.78
66373;SHT30;53168;51.146;17.120;2024-03-22T15:25:49;15.17;50.91
66373;SHT30;53168;51.146;17.120;2024-03-22T15:28:23;15.06;51.14
66373;SHT30;53168;51.146;17.120;2024-03-22T15:30:59;14.97;51.35
66373;SHT30;53168;51.146;17.120;2024-03-22T15:33:31;14.92;51.54
66373;SHT30;53168;51.146;17.120;2024-03-22T15:36:05;14.85;51.71
66373;SHT30;53168;51.146;17.120;2024-03-22T15:38:45;14.80;51.88
66373;SHT30;53168;51.146;17.120;2024-03-22T15:41:18;14.74;52.08
66373;SHT30;53168;51.146;17.120;2024-03-22T15:43:50;14.68;52.26
66373;SHT30;53168;51.146;17.120;2024-03-22T15:46:26;14.60;52.53
66373;SHT30;53168;51.146;17.120;2024-03-22T15:48:58;14.53;52.75
66373;SHT30;53168;51.146;17.120;2024-03-22T15:51:33;14.47;53.00
66373;SHT30;53168;51.146;17.120;2024-03-22T15:54:06;14.40;53.17
66373;SHT30;53168;51.146;17.120;2024-03-22T15:56:38;14.33;53.30
66373;SHT30;53168;51.146;17.120;2024-03-22T15:59:10;14.27;53.44
66373;SHT30;53168;51.146;17.120;2024-03-22T16:01:48;14.23;53.60
66373;SHT30;53168;51.146;17.120;2024-03-22T16:04:44;14.19;53.78
66373;SHT30;53168;51.146;17.120;2024-03-22T16:07:19;14.17;53.96
66373;SHT30;53168;51.146;17.120;2024-03-22T16:09:52;14.14;54.10
66373;SHT30;53168;51.146;17.120;2024-03-22T16:12:25;14.12;54.25
66373;SHT30;53168;51.146;17.120;2024-03-22T16:14:58;14.10;54.49
66373;SHT30;53168;51.146;17.120;2024-03-22T16:17:29;14.07;54.69
66373;SHT30;53168;51.146;17.120;2024-03-22T16:20:00;14.06;54.91
66373;SHT30;53168;51.146;17.120;2024-03-22T16:22:32;14.02;55.10
66373;SHT30;53168;51.146;17.120;2024-03-22T16:25:04;13.99;55.33
66373;SHT30;53168;51.146;17.120;2024-03-22T16:27:36;13.98;55.46
66373;SHT30;53168;51.146;17.120;2024-03-22T16:30:44;13.96;55.66
66373;SHT30;53168;51.146;17.120;2024-03-22T16:33:18;13.93;55.88
66373;SHT30;53168;51.146;17.120;2024-03-22T16:35:51;13.88;55.96
66373;SHT30;53168;51.146;17.120;2024-03-22T16:38:26;13.84;56.16
66373;SHT30;53168;51.146;17.120;2024-03-22T16:40:58;13.78;56.28
66373;SHT30;53168;51.146;17.120;2024-03-22T16:43:32;13.73;56.45
66373;SHT30;53168;51.146;17.120;2024-03-22T16:46:05;13.67;56.69
66373;SHT30;53168;51.146;17.120;2024-03-22T16:48:36;13.62;56.91
66373;SHT30;53168;51.146;17.120;2024-03-22T16:51:10;13.56;56.94
66373;SHT30;53168;51.146;17.120;2024-03-22T16:53:40;13.51;57.38
66373;SHT30;53168;51.146;17.120;2024-03-22T16:56:13;13.45;57.59
66373;SHT30;53168;51.146;17.120;2024-03-22T16:58:45;13.41;57.67
66373;SHT30;53168;51.146;17.120;2024-03-22T17:01:16;13.36;57.79
66373;SHT30;53168;51.146;17.120;2024-03-22T17:03:51;13.33;57.96
66373;SHT30;53168;51.146;17.120;2024-03-22T17:06:23;13.29;58.07
66373;SHT30;53168;51.146;17.120;2024-03-22T17:09:01;13.27;58.06
66373;SHT30;53168;51.146;17.120;2024-03-22T17:11:32;13.23;58.32
66373;SHT30;53168;51.146;17.120;2024-03-22T17:14:03;13.21;58.53
66373;SHT30;53168;51.146;17.120;2024-03-22T17:16:34;13.18;58.53
66373;SHT30;53168;51.146;17.120;2024-03-22T17:19:05;13.14;58.68